createdAt,value
2023-01-19T00:03:59.830Z,95495.94
2023-01-19T00:09:22.318Z,95496.50
2023-01-19T00:14:43.103Z,95493.13
2023-01-19T00:20:04.088Z,95494.97
2023-01-19T00:25:25.001Z,95500.34
2023-01-19T00:30:46.291Z,95500.69
2023-01-19T00:36:07.379Z,95503.97
2023-01-19T00:41:46.857Z,95519.19
2023-01-19T00:47:07.811Z,95539.41
2023-01-19T00:52:28.727Z,95554.84
2023-01-19T00:57:50.277Z,95566.53
2023-01-19T01:03:13.073Z,95578.22
2023-01-19T01:08:34.780Z,95579.50
2023-01-19T01:13:55.727Z,95588.38
2023-01-19T01:19:17.139Z,95590.25
2023-01-19T01:24:38.271Z,95595.16
2023-01-19T01:29:59.067Z,95605.78
2023-01-19T01:35:19.913Z,95608.72
2023-01-19T01:40:40.869Z,95610.22
2023-01-19T01:46:01.961Z,95614.34
2023-01-19T01:51:25.825Z,95630.31
2023-01-19T01:56:52.693Z,95624.34
2023-01-19T02:02:37.414Z,95629.72
2023-01-19T02:08:43.491Z,95645.28
2023-01-19T02:14:07.553Z,95648.19
2023-01-19T02:19:34.360Z,95637.06
2023-01-19T02:24:55.101Z,95644.41
2023-01-19T02:30:16.856Z,95635.97
2023-01-19T02:35:39.742Z,95631.59
2023-01-19T02:41:04.141Z,95640.03
2023-01-19T02:46:25.842Z,95639.81
2023-01-19T02:51:46.886Z,95635.50
2023-01-19T02:57:52.301Z,95639.09
2023-01-19T03:03:38.107Z,95645.50
2023-01-19T03:09:13.773Z,95646.31
2023-01-19T03:14:40.451Z,95639.16
2023-01-19T03:20:05.454Z,95627.25
2023-01-19T03:25:28.131Z,95625.59
2023-01-19T03:30:56.508Z,95642.63
2023-01-19T03:36:23.516Z,95639.53
2023-01-19T03:41:47.579Z,95642.00
2023-01-19T03:47:11.351Z,95651.78
2023-01-19T03:52:33.714Z,95661.13
2023-01-19T03:57:54.772Z,95659.91
2023-01-19T04:03:17.519Z,95665.28
2023-01-19T04:08:38.245Z,95666.44
2023-01-19T04:13:58.935Z,95672.09
2023-01-19T04:19:19.578Z,95662.56
2023-01-19T04:24:40.151Z,95659.53
2023-01-19T04:30:00.803Z,95669.88
2023-01-19T04:35:22.341Z,95678.81
2023-01-19T04:40:43.193Z,95671.81
2023-01-19T04:46:03.998Z,95677.63
2023-01-19T04:51:24.954Z,95684.66
2023-01-19T04:56:46.704Z,95673.41
2023-01-19T05:02:07.711Z,95680.66
2023-01-19T05:07:28.556Z,95687.25
2023-01-19T05:12:49.573Z,95693.31
2023-01-19T05:18:10.352Z,95703.78
2023-01-19T05:23:32.737Z,95710.88
2023-01-19T05:28:53.342Z,95717.22
2023-01-19T05:34:14.557Z,95719.06
2023-01-19T05:39:35.308Z,95732.59
2023-01-19T05:44:55.989Z,95732.00
2023-01-19T05:50:16.936Z,95741.31
2023-01-19T05:55:37.662Z,95743.25
2023-01-19T06:01:02.837Z,95753.00
2023-01-19T06:06:23.701Z,95750.34
2023-01-19T06:11:46.064Z,95766.84
2023-01-19T06:17:07.794Z,95768.56
2023-01-19T06:22:28.558Z,95776.78
2023-01-19T06:27:49.217Z,95781.59
2023-01-19T06:33:10.073Z,95784.41
2023-01-19T06:38:30.874Z,95783.09
2023-01-19T06:43:51.653Z,95783.69
2023-01-19T06:49:12.164Z,95790.13
2023-01-19T06:54:33.023Z,95777.41
2023-01-19T06:59:53.792Z,95791.66
2023-01-19T07:05:14.852Z,95790.13
2023-01-19T07:11:22.193Z,95803.59
2023-01-19T07:16:17.714Z,95800.19
2023-01-19T07:21:38.724Z,95809.97
2023-01-19T07:26:59.825Z,95828.19
2023-01-19T07:32:20.634Z,95839.91
2023-01-19T07:37:41.374Z,95847.47
2023-01-19T07:43:03.003Z,95842.69
2023-01-19T07:48:24.191Z,95849.78
2023-01-19T07:53:51.064Z,95856.31
2023-01-19T07:59:11.681Z,95858.31
2023-01-19T08:04:32.628Z,95858.38
2023-01-19T08:09:53.334Z,95854.28
2023-01-19T08:15:14.685Z,95855.75
2023-01-19T08:20:36.413Z,95862.19
2023-01-19T08:25:57.625Z,95866.50
2023-01-19T08:31:21.025Z,95861.78
2023-01-19T08:36:43.273Z,95864.88
2023-01-19T08:42:04.207Z,95871.25
2023-01-19T08:47:24.827Z,95877.81
2023-01-19T08:52:45.707Z,95886.81
2023-01-19T08:58:07.943Z,95886.53
2023-01-19T09:03:28.642Z,95886.31
2023-01-19T09:08:49.271Z,95885.19
2023-01-19T09:14:10.135Z,95880.25
2023-01-19T09:19:30.706Z,95882.00
2023-01-19T09:24:51.339Z,95886.03
2023-01-19T09:30:12.568Z,95877.69
2023-01-19T09:35:37.329Z,95876.47
2023-01-19T09:40:59.249Z,95879.13
2023-01-19T09:46:41.504Z,95870.09
2023-01-19T09:52:02.762Z,95885.59
2023-01-19T09:57:25.559Z,95892.53
2023-01-19T10:03:02.932Z,95895.50
2023-01-19T10:08:43.069Z,95889.34
2023-01-19T10:14:15.804Z,95895.78
2023-01-19T10:19:42.631Z,95898.69
2023-01-19T10:25:07.764Z,95913.13
2023-01-19T10:30:30.271Z,95920.63
2023-01-19T10:35:51.431Z,95921.47
2023-01-19T10:41:17.819Z,95921.50
2023-01-19T10:46:46.969Z,95910.91
2023-01-19T10:52:19.266Z,95904.94
2023-01-19T10:57:43.526Z,95905.88
2023-01-19T11:03:09.124Z,95902.91
2023-01-19T11:08:31.030Z,95902.34
2023-01-19T11:14:10.878Z,95901.53
2023-01-19T11:19:33.806Z,95902.13
2023-01-19T11:25:02.265Z,95905.66
2023-01-19T11:30:25.801Z,95903.91
2023-01-19T11:35:46.544Z,95893.28
2023-01-19T11:41:16.817Z,95902.22
2023-01-19T11:46:39.659Z,95895.41
2023-01-19T11:52:18.812Z,95891.25
2023-01-19T11:57:48.607Z,95891.66
2023-01-19T12:03:22.933Z,95881.34
2023-01-19T12:08:48.486Z,95886.56
2023-01-19T12:14:41.669Z,95883.19
2023-01-19T12:20:21.159Z,95873.59
2023-01-19T12:25:47.204Z,95869.59
2023-01-19T12:31:09.199Z,95870.31
2023-01-19T12:36:30.031Z,95866.72
2023-01-19T12:42:18.492Z,95862.19
2023-01-19T12:47:40.414Z,95869.22
2023-01-19T12:53:04.092Z,95867.06
2023-01-19T12:58:25.663Z,95861.06
2023-01-19T13:04:10.115Z,95871.22
2023-01-19T13:09:36.965Z,95872.47
2023-01-19T13:15:27.680Z,95885.22
2023-01-19T13:21:00.543Z,95892.00
2023-01-19T13:26:34.151Z,95888.91
2023-01-19T13:32:02.429Z,95891.91
2023-01-19T13:37:28.753Z,95900.09
2023-01-19T13:42:52.388Z,95897.94
2023-01-19T13:48:17.692Z,95900.72
2023-01-19T13:53:38.749Z,95909.44
2023-01-19T13:59:03.925Z,95903.97
2023-01-19T14:04:33.499Z,95903.78
2023-01-19T14:10:06.117Z,95902.56
2023-01-19T14:15:28.344Z,95904.78
2023-01-19T14:21:11.362Z,95908.28
2023-01-19T14:26:38.295Z,95911.50
2023-01-19T14:32:19.531Z,95899.47
2023-01-19T14:37:49.383Z,95915.63
2023-01-19T14:43:13.273Z,95918.19
2023-01-19T14:48:34.055Z,95918.47
2023-01-19T14:53:58.619Z,95921.97
2023-01-19T14:59:19.723Z,95925.19
2023-01-19T15:04:40.507Z,95921.91
2023-01-19T15:10:01.269Z,95920.94
2023-01-19T15:15:31.361Z,95933.75
2023-01-19T15:20:56.974Z,95925.19
2023-01-19T15:26:19.807Z,95936.19
2023-01-19T15:31:40.485Z,95934.53
2023-01-19T15:37:01.128Z,95943.16
2023-01-19T15:42:21.901Z,95947.56
2023-01-19T15:47:42.467Z,95953.53
2023-01-19T15:53:03.529Z,95956.09
2023-01-19T15:58:24.773Z,95959.78
2023-01-19T16:03:46.169Z,95967.03
2023-01-19T16:09:07.450Z,95974.66
2023-01-19T16:14:28.067Z,95970.16
2023-01-19T16:19:48.979Z,95975.19
2023-01-19T16:25:10.200Z,95993.28
2023-01-19T16:30:31.393Z,95999.16
2023-01-19T16:35:52.715Z,95998.66
2023-01-19T16:41:13.749Z,96006.97
2023-01-19T16:46:36.845Z,96013.66
2023-01-19T16:51:58.634Z,96012.63
2023-01-19T16:57:19.448Z,96024.19
2023-01-19T17:02:40.095Z,96025.53
2023-01-19T17:08:00.890Z,96025.66
2023-01-19T17:13:21.883Z,96030.97
2023-01-19T17:18:43.241Z,96026.97
2023-01-19T17:24:07.129Z,96015.53
2023-01-19T17:29:27.940Z,96032.47
2023-01-19T17:34:49.345Z,96029.16
2023-01-19T17:40:10.847Z,96037.88
2023-01-19T17:45:34.150Z,96045.81
2023-01-19T17:50:55.675Z,96046.97
2023-01-19T17:56:18.568Z,96058.44
2023-01-19T18:01:40.447Z,96061.06
2023-01-19T18:07:01.372Z,96067.63
2023-01-19T18:12:23.687Z,96067.75
2023-01-19T18:17:45.132Z,96071.66
2023-01-19T18:23:09.097Z,96073.84
2023-01-19T18:28:30.526Z,96062.41
2023-01-19T18:33:52.875Z,96054.47
2023-01-19T18:39:13.782Z,96053.44
2023-01-19T18:44:36.036Z,96066.91
2023-01-19T18:49:56.669Z,96064.78
2023-01-19T18:55:17.496Z,96064.28
2023-01-19T19:00:38.321Z,96064.06
2023-01-19T19:06:03.515Z,96074.13
2023-01-19T19:11:25.973Z,96066.72
2023-01-19T19:16:46.804Z,96065.78
2023-01-19T19:22:07.904Z,96067.19
2023-01-19T19:27:28.484Z,96073.03
2023-01-19T19:32:56.496Z,96062.13
2023-01-19T19:38:17.347Z,96071.03
2023-01-19T19:43:38.907Z,96060.19
2023-01-19T19:49:00.138Z,96057.53
2023-01-19T19:54:20.604Z,96066.78
2023-01-19T19:59:41.511Z,96068.63
2023-01-19T20:05:02.634Z,96066.06
2023-01-19T20:10:25.797Z,96072.03
2023-01-19T20:15:49.671Z,96074.16
2023-01-19T20:21:11.582Z,96077.63
2023-01-19T20:26:35.092Z,96086.88
2023-01-19T20:31:56.392Z,96084.63
2023-01-19T20:37:17.194Z,96091.69
2023-01-19T20:42:41.380Z,96087.25
2023-01-19T20:48:02.190Z,96088.00
2023-01-19T20:53:22.947Z,96089.72
2023-01-19T20:58:44.076Z,96090.84
2023-01-19T21:04:04.997Z,96091.31
2023-01-19T21:09:26.186Z,96091.84
2023-01-19T21:14:46.915Z,96094.63
2023-01-19T21:20:08.145Z,96099.38
2023-01-19T21:25:29.138Z,96097.09
2023-01-19T21:30:51.403Z,96088.41
2023-01-19T21:36:12.448Z,96089.88
2023-01-19T21:41:34.891Z,96097.19
2023-01-19T21:46:56.003Z,96101.59
2023-01-19T21:52:16.673Z,96103.50
2023-01-19T21:57:37.470Z,96101.59
2023-01-19T22:03:03.772Z,96110.38
2023-01-19T22:08:25.380Z,96106.69
2023-01-19T22:13:46.590Z,96097.19
2023-01-19T22:19:12.681Z,96105.59
2023-01-19T22:24:33.428Z,96105.53
2023-01-19T22:29:54.182Z,96099.00
2023-01-19T22:35:15.490Z,96114.19
2023-01-19T22:40:36.722Z,96107.38
2023-01-19T22:45:59.083Z,96108.91
2023-01-19T22:51:21.046Z,96105.81
2023-01-19T22:56:42.668Z,96112.75
2023-01-19T23:02:03.831Z,96114.75
2023-01-19T23:07:24.999Z,96113.81
2023-01-19T23:12:46.688Z,96109.66
2023-01-19T23:18:07.422Z,96120.91
2023-01-19T23:23:28.197Z,96108.44
2023-01-19T23:28:57.004Z,96115.31
2023-01-19T23:34:17.882Z,96115.47
2023-01-19T23:39:38.634Z,96118.56
2023-01-19T23:44:59.397Z,96105.88
2023-01-19T23:50:20.070Z,96107.06
2023-01-19T23:55:40.692Z,96127.59
